CheckWX is a tool to help pilots better visualize weather data.  It is not intended as a substitute for an official pre-flight weather briefing.

12:54:04 UTC

RJFS TAF
Saga Airport
Saga, Japan
TAF RJFS 221108Z 2212/2318 36005KT 9999 FEW030 SCT040 BECMG 2215/2217 02005KT BECMG 2221/2223 32008KT

Mar-22@
12:00 UTC

Mar-22 @ 12:00 UTC

Mar-22@
15:00 UTC

Mar-22 @ 15:00 UTC

TAF RJFS 221108Z 2212/2318 36005KT 9999 FEW030 SCT040
Wind
  • 360° at 5 KTS
Cloud Levels
  • Few at 3,000' AGL
  • Scattered at 4,000' AGL

Mar-22@
15:00 UTC

Mar-22 @ 15:00 UTC

Mar-22@
21:00 UTC

Mar-22 @ 21:00 UTC

BECMG 2215/2217 02005KT

Becoming

Becoming Conditions expected by Fri, Mar 22, 2019 @ 17:00 UTC

Wind
  • 020° at 5 KTS
Cloud Levels
  • Few at 3,000' AGL
  • Scattered at 4,000' AGL

Mar-22@
21:00 UTC

Mar-22 @ 21:00 UTC

Mar-23@
18:00 UTC

Mar-23 @ 18:00 UTC

BECMG 2221/2223 32008KT

Becoming

Becoming Conditions expected by Fri, Mar 22, 2019 @ 23:00 UTC

Wind
  • 320° at 8 KTS
Cloud Levels
  • Few at 3,000' AGL
  • Scattered at 4,000' AGL